createdAt,value
2023-01-03T00:19:32.083Z,87.43
2023-01-03T00:48:16.308Z,88.23
2023-01-03T01:16:52.911Z,89.26
2023-01-03T01:45:25.085Z,89.24
2023-01-03T02:14:12.406Z,90.09
2023-01-03T02:42:54.290Z,90.57
2023-01-03T03:11:32.038Z,92.45
2023-01-03T03:40:23.947Z,91.45
2023-01-03T04:09:25.333Z,91.56
2023-01-03T04:38:11.086Z,91.96
2023-01-03T05:07:11.195Z,92.17
2023-01-03T05:35:53.889Z,93.11
2023-01-03T06:04:39.064Z,92.51
2023-01-03T06:33:27.375Z,92.24
2023-01-03T07:02:15.586Z,92.42
2023-01-03T07:30:47.811Z,95.46
2023-01-03T07:59:34.804Z,94.27
2023-01-03T08:28:29.911Z,92.97
2023-01-03T08:57:20.171Z,92.24
2023-01-03T09:26:13.347Z,92.39
2023-01-03T09:54:48.161Z,92.75
2023-01-03T10:23:34.050Z,94.14
2023-01-03T10:52:16.770Z,94.39
2023-01-03T11:20:54.653Z,94.29
2023-01-03T11:49:42.099Z,94.12
2023-01-03T12:18:37.985Z,92.33
2023-01-03T12:47:30.173Z,91.19
2023-01-03T13:16:10.168Z,91.1
2023-01-03T13:44:42.736Z,89.9
2023-01-03T14:13:29.089Z,89.15
2023-01-03T14:42:01.231Z,88.84
2023-01-03T15:10:49.395Z,89.31
2023-01-03T15:39:12.042Z,89.25
2023-01-03T16:07:56.666Z,89.55
2023-01-03T16:36:30.205Z,90.82
2023-01-03T17:05:22.276Z,91.84
2023-01-03T17:34:01.368Z,92.32
2023-01-03T18:02:48.662Z,93.14
2023-01-03T18:31:23.722Z,92.84
2023-01-03T19:00:06.296Z,92.76
2023-01-03T19:28:52.939Z,93.17
2023-01-03T19:57:38.864Z,93.25
2023-01-03T20:26:13.213Z,94.82
2023-01-03T20:54:44.106Z,94.58
2023-01-03T21:23:23.454Z,94.7
2023-01-03T21:52:06.098Z,96.74
2023-01-03T22:20:22.507Z,95.06
2023-01-03T22:48:40.071Z,95.91
2023-01-03T23:16:49.111Z,94.35
2023-01-03T23:45:03.497Z,95.38
